Banks, Oregon
Current Conditions -  °F | °C
As of 9:53 PM on Wednesday 17 Dec 2014 (Local Time) from KHIO Reporting Station
Haze Haze  
Wind Chill: 43°   Ceiling: 9500
Heat Index: 43°   Visibility: 5mi
Dew Point: 43°   Wind: 0mph
Humidity: 100%   Direction: NA
Pressure: 29.96"   Gusts: NA
Location:  45.62°N, 123.11°W
Report Text: KHIO 180553Z 00000KT 5SM BR FEW014 FEW055 OVC095 06/06 A2996 RMK AO2 SLP146 60005 T00610061 10072 20061 51017
Loading
Personal Weather Stations






























Interactive Weather Map New forecast layout! Learn more

10-Day Weather Forecast

Advertisements
Track Severe Weather on mobile